This is the latest recevied weather packets stored in our database for station/object HS3UAA-1. If no packets are shown the sender has not sent any weather packets the latest 1 day(s).
| Time | Temp. | Humidity | Pressure | Rain* | Wind** | Luminosity | Snow |
|---|---|---|---|---|---|---|---|
| 1778118424 | 27.78° C | 55% | 997 hPa | - | - | 0 W/m² | - |
| 1778118102 | 27.78° C | 55% | 997 hPa | - | - | 0 W/m² | - |
| 1778117780 | 27.78° C | 54% | 997 hPa | - | - | 0 W/m² | - |
| 1778117458 | 27.78° C | 54% | 997 hPa | - | - | 0 W/m² | - |
| 1778116814 | 27.78° C | 58% | 997 hPa | - | - | 0 W/m² | - |
| 1778116491 | 27.78° C | 59% | 997 hPa | - | - | 0 W/m² | - |
| 1778116168 | 27.78° C | 60% | 997 hPa | - | - | 0 W/m² | - |
| 1778115507 | 27.78° C | 61% | 997 hPa | - | - | 0 W/m² | - |
| 1778067391 | 33.33° C | 43% | 994 hPa | - | - | 0 W/m² | - |
| 1778067069 | 33.33° C | 43% | 995 hPa | - | - | 0 W/m² | - |
| 1778066747 | 32.78° C | 44% | 994 hPa | - | - | 0 W/m² | - |
| 1778066425 | 32.78° C | 43% | 994 hPa | - | - | 0 W/m² | - |
| 1778066103 | 32.78° C | 43% | 995 hPa | - | - | 0 W/m² | - |
| 1778065781 | 32.78° C | 43% | 994 hPa | - | - | 0 W/m² | - |
| 1778063751 | 30° C | 49% | 994 hPa | - | - | 0 W/m² | - |
| 1778063107 | 27.78° C | 50% | 994 hPa | - | - | 0 W/m² | - |
| 1778062785 | 27.78° C | 50% | 994 hPa | - | - | 0 W/m² | - |
| 1778062463 | 27.78° C | 49% | 994 hPa | - | - | 0 W/m² | - |
| 1778059297 | 27.78° C | 46% | 993 hPa | - | - | 0 W/m² | - |
| 1778058975 | 27.78° C | 44% | 993 hPa | - | - | 0 W/m² | - |
| 1778058653 | 27.78° C | 48% | 993 hPa | - | - | 0 W/m² | - |
| 1778058331 | 28.33° C | 46% | 993 hPa | - | - | 0 W/m² | - |
| 1778057365 | 28.33° C | 42% | 994 hPa | - | - | 0 W/m² | - |
| 1778055110 | 28.89° C | 39% | 993 hPa | - | - | 0 W/m² | - |
| 1778054144 | 28.89° C | 40% | 993 hPa | - | - | 0 W/m² | - |
* Rain since midnight (hover to see other rain measurements)
** Current wind speed in m/s (hover to see current wind gust speed)